createdAt,value
2018-11-13T00:00:25.649Z,5.20
2018-11-13T00:02:55.496Z,5.20
2018-11-13T00:05:25.382Z,5.20
2018-11-13T00:07:54.756Z,5.20
2018-11-13T00:10:24.068Z,5.20
2018-11-13T00:12:53.418Z,5.20
2018-11-13T00:15:22.798Z,5.20
2018-11-13T00:17:52.126Z,5.20
2018-11-13T00:20:21.760Z,5.10
2018-11-13T00:22:51.112Z,5.10
2018-11-13T00:25:21.238Z,5.10
2018-11-13T00:27:50.598Z,5.10
2018-11-13T00:30:21.799Z,5.10
2018-11-13T00:32:51.583Z,5.00
2018-11-13T00:35:21.848Z,5.00
2018-11-13T00:37:52.454Z,5.00
2018-11-13T00:40:21.847Z,5.00
2018-11-13T00:42:51.323Z,5.00
2018-11-13T00:45:20.738Z,4.90
2018-11-13T00:47:50.096Z,4.90
2018-11-13T00:50:20.574Z,4.90
2018-11-13T00:52:50.339Z,4.90
2018-11-13T00:55:19.825Z,4.90
2018-11-13T00:57:50.541Z,4.90
2018-11-13T01:00:21.013Z,4.90
2018-11-13T01:02:50.331Z,5.00
2018-11-13T01:05:20.890Z,5.00
2018-11-13T01:07:51.210Z,5.00
2018-11-13T01:10:21.342Z,5.00
2018-11-13T01:12:52.915Z,5.00
2018-11-13T01:15:22.221Z,5.00
2018-11-13T01:17:51.568Z,5.00
2018-11-13T01:20:20.920Z,5.00
2018-11-13T01:22:50.703Z,5.00
2018-11-13T01:25:20.003Z,5.00
2018-11-13T01:27:49.413Z,5.10
2018-11-13T01:30:18.804Z,5.10
2018-11-13T01:32:48.212Z,5.10
2018-11-13T01:35:18.624Z,5.10
2018-11-13T01:37:48.088Z,5.10
2018-11-13T01:40:20.677Z,5.10
2018-11-13T01:42:50.310Z,5.10
2018-11-13T01:45:20.566Z,5.10
2018-11-13T01:47:49.887Z,5.10
2018-11-13T01:50:19.556Z,5.10
2018-11-13T01:52:48.968Z,5.10
2018-11-13T01:55:18.485Z,5.10
2018-11-13T01:57:48.126Z,5.10
2018-11-13T02:00:20.062Z,5.10
2018-11-13T02:02:50.924Z,5.10
2018-11-13T02:05:21.583Z,5.10
2018-11-13T02:07:52.614Z,5.10
2018-11-13T02:10:22.406Z,5.10
2018-11-13T02:12:52.668Z,5.10
2018-11-13T02:15:22.599Z,5.00
2018-11-13T02:17:52.161Z,5.00
2018-11-13T02:20:22.671Z,5.00
2018-11-13T02:22:52.196Z,5.00
2018-11-13T02:25:21.896Z,5.00
2018-11-13T02:27:51.362Z,5.00
2018-11-13T02:30:22.148Z,5.00
2018-11-13T02:32:51.718Z,5.00
2018-11-13T02:35:21.365Z,5.00
2018-11-13T02:37:50.807Z,5.10
2018-11-13T02:40:20.115Z,5.10
2018-11-13T02:42:50.449Z,5.00
2018-11-13T02:45:20.539Z,5.00
2018-11-13T02:47:50.927Z,5.00
2018-11-13T02:50:21.394Z,5.00
2018-11-13T02:52:50.927Z,5.00
2018-11-13T02:55:20.228Z,4.90
2018-11-13T02:57:49.635Z,4.90
2018-11-13T03:00:20.430Z,4.90
2018-11-13T03:02:50.146Z,4.80
2018-11-13T03:05:20.581Z,4.80
2018-11-13T03:07:50.904Z,4.80
2018-11-13T03:10:20.986Z,4.70
2018-11-13T03:12:50.339Z,4.70
2018-11-13T03:15:20.599Z,4.70
2018-11-13T03:17:50.058Z,4.70
2018-11-13T03:20:20.383Z,4.80
2018-11-13T03:22:50.298Z,4.70
2018-11-13T03:25:20.784Z,4.80
2018-11-13T03:27:50.142Z,4.80
2018-11-13T03:30:24.182Z,4.80
2018-11-13T03:32:54.311Z,4.80
2018-11-13T03:35:23.626Z,4.80
2018-11-13T03:37:52.976Z,4.80
2018-11-13T03:40:22.406Z,4.80
2018-11-13T03:42:51.816Z,4.80
2018-11-13T03:45:21.215Z,4.90
2018-11-13T03:47:50.688Z,4.90
2018-11-13T03:50:21.403Z,4.90
2018-11-13T03:52:50.873Z,4.90
2018-11-13T03:55:21.066Z,5.00
2018-11-13T03:57:50.920Z,5.00
2018-11-13T04:00:22.455Z,5.00
2018-11-13T04:02:51.917Z,5.00
2018-11-13T04:05:21.933Z,5.00
2018-11-13T04:07:53.673Z,5.00
2018-11-13T04:10:23.775Z,5.10
2018-11-13T04:12:53.189Z,5.00
2018-11-13T04:15:24.435Z,5.00
2018-11-13T04:17:54.155Z,5.00
2018-11-13T04:20:24.046Z,5.00
2018-11-13T04:22:53.490Z,5.00
2018-11-13T04:25:22.866Z,5.00
2018-11-13T04:27:52.192Z,5.00
2018-11-13T04:30:21.520Z,5.00
2018-11-13T04:32:50.912Z,5.00
2018-11-13T04:35:20.258Z,5.00
2018-11-13T04:37:49.649Z,5.00
2018-11-13T04:40:20.494Z,5.00
2018-11-13T04:42:51.149Z,5.00
2018-11-13T04:45:22.396Z,5.00
2018-11-13T04:47:52.215Z,5.00
2018-11-13T04:50:22.631Z,5.00
2018-11-13T04:52:52.046Z,5.00
2018-11-13T04:55:21.330Z,5.00
2018-11-13T04:57:51.539Z,5.10
2018-11-13T05:00:23.113Z,5.00
2018-11-13T05:02:52.505Z,5.10
2018-11-13T05:05:22.926Z,5.10
2018-11-13T05:07:53.676Z,5.10
2018-11-13T05:10:23.629Z,5.10
2018-11-13T05:12:53.023Z,5.10
2018-11-13T05:15:22.523Z,5.00
2018-11-13T05:17:51.901Z,5.00
2018-11-13T05:20:21.267Z,5.00
2018-11-13T05:22:51.064Z,5.00
2018-11-13T05:25:21.249Z,5.00
2018-11-13T05:27:51.200Z,4.90
2018-11-13T05:30:21.863Z,4.90
2018-11-13T05:32:51.564Z,4.90
2018-11-13T05:35:21.898Z,4.90
2018-11-13T05:37:51.388Z,4.90
2018-11-13T05:40:23.140Z,4.80
2018-11-13T05:42:52.552Z,4.80
2018-11-13T05:45:23.187Z,4.80
2018-11-13T05:47:52.518Z,4.70
2018-11-13T05:50:21.902Z,4.70
2018-11-13T05:52:53.149Z,4.70
2018-11-13T05:55:22.533Z,4.70
2018-11-13T05:57:52.064Z,4.70
2018-11-13T06:00:31.316Z,4.70
2018-11-13T06:03:01.392Z,4.70
2018-11-13T06:05:31.154Z,4.70
2018-11-13T06:08:00.561Z,4.70
2018-11-13T06:10:29.927Z,4.70
2018-11-13T06:12:59.228Z,4.70
2018-11-13T06:15:28.571Z,4.70
2018-11-13T06:17:57.961Z,4.60
2018-11-13T06:20:27.387Z,4.60
2018-11-13T06:22:56.773Z,4.60
2018-11-13T06:25:26.099Z,4.60
2018-11-13T06:27:55.492Z,4.60
2018-11-13T06:30:25.767Z,4.50
2018-11-13T06:32:55.197Z,4.50
2018-11-13T06:35:24.600Z,4.50
2018-11-13T06:37:53.891Z,4.50
2018-11-13T06:40:23.329Z,4.50
2018-11-13T06:42:52.660Z,4.50
2018-11-13T06:45:23.232Z,4.50
2018-11-13T06:47:52.905Z,4.50
2018-11-13T06:50:22.316Z,4.50
2018-11-13T06:52:51.811Z,4.50
2018-11-13T06:55:31.013Z,4.60
2018-11-13T06:58:00.345Z,4.70
2018-11-13T07:00:29.819Z,4.80
2018-11-13T07:02:59.191Z,5.00
2018-11-13T07:05:28.982Z,5.00
2018-11-13T07:07:58.331Z,5.10
2018-11-13T07:10:28.906Z,5.20
2018-11-13T07:12:58.812Z,5.20
2018-11-13T07:15:29.541Z,5.30
2018-11-13T07:18:01.222Z,5.30
2018-11-13T07:20:32.140Z,5.40
2018-11-13T07:23:01.669Z,5.40
2018-11-13T07:25:31.054Z,5.40
2018-11-13T07:28:00.444Z,5.50
2018-11-13T07:30:29.822Z,5.60
2018-11-13T07:32:59.155Z,5.70
2018-11-13T07:35:28.498Z,5.80
2018-11-13T07:37:58.987Z,5.90
2018-11-13T07:40:28.427Z,6.00
2018-11-13T07:42:57.892Z,6.10
2018-11-13T07:45:27.260Z,6.30
2018-11-13T07:47:56.708Z,6.50
2018-11-13T07:50:26.000Z,6.70
2018-11-13T07:52:55.347Z,6.80
2018-11-13T07:55:24.699Z,7.00
2018-11-13T07:57:54.101Z,7.10
2018-11-13T08:00:24.527Z,7.30
2018-11-13T08:02:55.269Z,7.40
2018-11-13T08:05:25.794Z,7.60
2018-11-13T08:07:55.133Z,7.70
2018-11-13T08:10:24.501Z,7.90
2018-11-13T08:12:54.025Z,8.00
2018-11-13T08:15:23.442Z,8.10
2018-11-13T08:17:52.808Z,8.30
2018-11-13T08:20:22.148Z,8.40
2018-11-13T08:22:52.059Z,8.60
2018-11-13T08:25:21.510Z,8.70
2018-11-13T08:27:51.575Z,8.80
2018-11-13T08:30:20.931Z,9.00
2018-11-13T08:32:50.820Z,9.20
2018-11-13T08:35:20.168Z,9.40
2018-11-13T08:37:50.521Z,9.60
2018-11-13T08:40:20.246Z,9.80
2018-11-13T08:42:50.226Z,10.10
2018-11-13T08:45:19.661Z,10.30
2018-11-13T08:47:49.094Z,10.60
2018-11-13T08:50:18.474Z,10.80
2018-11-13T08:52:48.085Z,11.10
2018-11-13T08:55:18.022Z,11.40
2018-11-13T08:57:47.457Z,11.70
2018-11-13T09:00:18.199Z,12.00
2018-11-13T09:02:48.350Z,12.30
2018-11-13T09:05:18.318Z,12.60
2018-11-13T09:07:47.595Z,12.90
2018-11-13T09:10:18.461Z,13.20
2018-11-13T09:12:48.683Z,13.60
2018-11-13T09:15:19.442Z,14.00
2018-11-13T09:17:48.949Z,14.30
2018-11-13T09:20:19.556Z,14.60
2018-11-13T09:22:49.043Z,14.90
2018-11-13T09:25:19.795Z,15.10
2018-11-13T09:27:49.285Z,15.40
2018-11-13T09:30:20.114Z,15.70
2018-11-13T09:32:49.883Z,15.90
2018-11-13T09:35:19.852Z,16.10
2018-11-13T09:37:49.304Z,16.20
2018-11-13T09:40:21.094Z,16.40
2018-11-13T09:42:51.863Z,16.50
2018-11-13T09:45:21.288Z,16.60
2018-11-13T09:47:51.480Z,16.60
2018-11-13T09:50:21.616Z,16.60
2018-11-13T09:52:52.968Z,16.60
2018-11-13T09:55:23.257Z,16.70
2018-11-13T09:57:52.604Z,16.70
2018-11-13T10:00:23.415Z,16.80
2018-11-13T10:02:58.923Z,16.90
2018-11-13T10:05:27.938Z,16.90
2018-11-13T10:07:57.562Z,16.90
2018-11-13T10:10:27.527Z,16.90
2018-11-13T10:12:56.880Z,16.90
2018-11-13T10:15:27.700Z,17.00
2018-11-13T10:17:57.168Z,17.00
2018-11-13T10:20:26.429Z,16.80
2018-11-13T10:22:56.867Z,16.70
2018-11-13T10:25:26.297Z,16.50
2018-11-13T10:27:55.677Z,16.50
2018-11-13T10:30:25.500Z,16.50
2018-11-13T10:32:55.501Z,16.40
2018-11-13T10:35:26.197Z,16.30
2018-11-13T10:37:55.544Z,16.20
2018-11-13T10:40:25.031Z,16.10
2018-11-13T10:42:56.027Z,16.00
2018-11-13T10:45:27.725Z,15.90
2018-11-13T10:47:57.336Z,15.70
2018-11-13T10:50:27.347Z,15.50
2018-11-13T10:52:56.825Z,15.30
2018-11-13T10:55:26.230Z,15.20
2018-11-13T10:57:55.583Z,15.20
2018-11-13T11:02:37.590Z,15.10
2018-11-13T11:05:10.430Z,15.10
2018-11-13T11:07:41.487Z,15.00
2018-11-13T11:10:10.900Z,15.00
2018-11-13T11:12:40.766Z,14.90
2018-11-13T11:15:11.208Z,14.90
2018-11-13T11:17:40.746Z,14.90
2018-11-13T11:20:12.467Z,14.90
2018-11-13T11:22:42.399Z,14.90
2018-11-13T11:25:12.850Z,14.90
2018-11-13T11:27:42.298Z,14.80
2018-11-13T11:30:14.274Z,14.80
2018-11-13T11:32:44.667Z,14.70
2018-11-13T11:35:14.067Z,14.60
2018-11-13T11:37:43.675Z,14.60
2018-11-13T11:40:13.661Z,14.40
2018-11-13T11:42:43.223Z,14.30
2018-11-13T11:45:13.999Z,14.20
2018-11-13T11:47:43.896Z,14.10
2018-11-13T11:50:14.220Z,14.00
2018-11-13T11:52:43.613Z,13.90
2018-11-13T11:55:13.646Z,13.90
2018-11-13T11:57:43.029Z,13.80
2018-11-13T12:00:16.157Z,13.70
2018-11-13T12:02:45.714Z,13.60
2018-11-13T12:05:15.066Z,13.60
2018-11-13T12:07:44.530Z,13.50
2018-11-13T12:10:14.372Z,13.50
2018-11-13T12:12:43.753Z,13.50
2018-11-13T12:15:13.990Z,13.40
2018-11-13T12:17:44.308Z,13.40
2018-11-13T12:20:15.274Z,13.30
2018-11-13T12:22:44.840Z,13.30
2018-11-13T12:25:17.438Z,13.30
2018-11-13T12:27:47.216Z,13.30
2018-11-13T12:30:18.606Z,13.30
2018-11-13T12:32:49.403Z,13.30
2018-11-13T12:35:19.882Z,13.30
2018-11-13T12:37:49.442Z,13.40
2018-11-13T12:40:21.125Z,13.40
2018-11-13T12:42:51.446Z,13.40
2018-11-13T12:45:21.398Z,13.40
2018-11-13T12:47:50.904Z,13.40
2018-11-13T12:50:20.973Z,13.40
2018-11-13T12:52:50.545Z,13.40
2018-11-13T12:55:21.509Z,13.40
2018-11-13T12:57:52.271Z,13.40
2018-11-13T13:00:23.822Z,13.40
2018-11-13T13:02:53.273Z,13.40
2018-11-13T13:05:23.897Z,13.40
2018-11-13T13:07:56.125Z,13.40
2018-11-13T13:10:25.867Z,13.40
2018-11-13T13:12:55.877Z,13.40
2018-11-13T13:15:25.271Z,13.50
2018-11-13T13:17:54.667Z,13.40
2018-11-13T13:20:26.009Z,13.40
2018-11-13T13:22:56.217Z,13.50
2018-11-13T13:25:25.540Z,13.50
2018-11-13T13:27:54.911Z,13.50
2018-11-13T13:30:25.567Z,13.50
2018-11-13T13:32:55.005Z,13.40
2018-11-13T13:35:43.569Z,13.40
2018-11-13T13:38:12.894Z,13.40
2018-11-13T13:40:43.659Z,13.40
2018-11-13T13:43:13.968Z,13.40
2018-11-13T13:45:44.330Z,13.40
2018-11-13T13:48:13.715Z,13.30
2018-11-13T13:50:43.132Z,13.30
2018-11-13T13:53:13.625Z,13.30
2018-11-13T13:55:43.542Z,13.30
2018-11-13T13:58:13.550Z,13.20
2018-11-13T14:00:43.105Z,13.20
2018-11-13T14:03:23.743Z,13.20
2018-11-13T14:06:06.114Z,13.20
2018-11-13T14:08:49.293Z,13.10
2018-11-13T14:11:26.058Z,13.10
2018-11-13T14:14:00.513Z,13.00
2018-11-13T14:16:37.123Z,13.00
2018-11-13T14:19:15.929Z,13.00
2018-11-13T14:21:45.451Z,13.00
2018-11-13T14:24:14.762Z,13.00
2018-11-13T14:26:51.066Z,13.00
2018-11-13T14:29:24.945Z,12.90
2018-11-13T14:31:54.358Z,12.90
2018-11-13T14:34:23.695Z,12.90
2018-11-13T14:36:53.073Z,12.90
2018-11-13T14:39:22.518Z,12.90
2018-11-13T14:41:51.975Z,12.90
2018-11-13T14:44:21.267Z,12.90
2018-11-13T14:46:51.229Z,12.90
2018-11-13T14:49:20.571Z,12.90
2018-11-13T14:51:49.985Z,12.90
2018-11-13T14:54:19.430Z,12.90
2018-11-13T14:56:48.805Z,12.90
2018-11-13T14:59:18.143Z,12.80
2018-11-13T15:01:49.021Z,12.80
2018-11-13T15:04:18.522Z,12.70
2018-11-13T15:06:47.852Z,12.70
2018-11-13T15:09:17.246Z,12.70
2018-11-13T15:11:46.583Z,12.60
2018-11-13T15:14:16.175Z,12.60
2018-11-13T15:16:45.820Z,12.60
2018-11-13T15:19:15.174Z,12.50
2018-11-13T15:21:44.573Z,12.40
2018-11-13T15:24:14.709Z,12.40
2018-11-13T15:26:44.078Z,12.40
2018-11-13T15:29:14.066Z,12.40
2018-11-13T15:31:43.444Z,12.40
2018-11-13T15:34:13.147Z,12.40
2018-11-13T15:36:42.624Z,12.30
2018-11-13T15:39:13.687Z,12.40
2018-11-13T15:41:43.523Z,12.40
2018-11-13T15:44:13.472Z,12.40
2018-11-13T15:46:43.013Z,12.40
2018-11-13T15:49:12.536Z,12.30
2018-11-13T15:51:42.225Z,12.20
2018-11-13T15:54:11.530Z,12.10
2018-11-13T15:56:40.880Z,12.10
2018-11-13T15:59:10.347Z,12.10
2018-11-13T16:01:40.067Z,12.10
2018-11-13T16:04:09.384Z,12.00
2018-11-13T16:06:39.295Z,12.10
2018-11-13T16:09:12.245Z,12.00
2018-11-13T16:11:41.669Z,12.10
2018-11-13T16:14:11.279Z,12.10
2018-11-13T16:16:41.035Z,12.10
2018-11-13T16:19:10.395Z,12.00
2018-11-13T16:21:39.813Z,12.00
2018-11-13T16:24:09.106Z,11.90
2018-11-13T16:26:38.466Z,11.90
2018-11-13T16:29:07.855Z,11.90
2018-11-13T16:31:37.171Z,11.80
2018-11-13T16:34:06.711Z,11.70
2018-11-13T16:36:36.157Z,11.70
2018-11-13T16:39:10.640Z,11.70
2018-11-13T16:41:40.261Z,11.60
2018-11-13T16:44:09.647Z,11.60
2018-11-13T16:46:39.044Z,11.60
2018-11-13T16:49:08.848Z,11.60
2018-11-13T16:51:38.232Z,11.60
2018-11-13T16:54:08.098Z,11.60
2018-11-13T16:56:42.747Z,11.60
2018-11-13T16:59:12.497Z,11.50
2018-11-13T17:01:41.900Z,11.50
2018-11-13T17:04:11.760Z,11.50
2018-11-13T17:06:41.884Z,11.50
2018-11-13T17:09:12.120Z,11.40
2018-11-13T17:11:41.800Z,11.40
2018-11-13T17:14:11.255Z,11.40
2018-11-13T17:16:40.943Z,11.40
2018-11-13T17:19:10.267Z,11.40
2018-11-13T17:21:39.625Z,11.30
2018-11-13T17:24:08.976Z,11.40
2018-11-13T17:26:38.394Z,11.30
2018-11-13T17:29:07.818Z,11.30
2018-11-13T17:31:37.291Z,11.40
2018-11-13T17:34:06.646Z,11.40
2018-11-13T17:36:36.938Z,11.40
2018-11-13T17:39:12.445Z,11.40
2018-11-13T17:41:42.202Z,11.40
2018-11-13T17:44:11.947Z,11.40
2018-11-13T17:46:41.352Z,11.40
2018-11-13T17:49:10.683Z,11.40
2018-11-13T17:51:40.092Z,11.30
2018-11-13T17:54:09.459Z,11.30
2018-11-13T17:56:39.855Z,11.30
2018-11-13T17:59:09.227Z,11.30
2018-11-13T18:01:40.475Z,11.30
2018-11-13T18:04:14.594Z,11.30
2018-11-13T18:06:44.108Z,11.20
2018-11-13T18:09:14.962Z,11.20
2018-11-13T18:11:44.423Z,11.10
2018-11-13T18:14:13.863Z,11.10
2018-11-13T18:16:44.197Z,11.10
2018-11-13T18:19:13.648Z,11.10
2018-11-13T18:21:43.126Z,11.10
2018-11-13T18:24:12.949Z,11.10
2018-11-13T18:26:42.523Z,11.10
2018-11-13T18:29:11.864Z,11.10
2018-11-13T18:31:42.616Z,11.00
2018-11-13T18:34:12.980Z,10.90
2018-11-13T18:36:42.779Z,10.80
2018-11-13T18:39:14.646Z,10.80
2018-11-13T18:41:44.315Z,10.70
2018-11-13T18:44:14.942Z,10.60
2018-11-13T18:46:44.746Z,10.50
2018-11-13T18:49:15.347Z,10.50
2018-11-13T18:51:45.426Z,10.40
2018-11-13T18:54:22.972Z,10.30
2018-11-13T18:56:52.835Z,10.20
2018-11-13T18:59:29.666Z,10.20
2018-11-13T19:02:04.996Z,10.10
2018-11-13T19:04:34.517Z,10.00
2018-11-13T19:07:04.212Z,10.00
2018-11-13T19:09:34.947Z,9.90
2018-11-13T19:12:04.941Z,9.80
2018-11-13T19:14:35.119Z,9.80
2018-11-13T19:17:04.765Z,9.70
2018-11-13T19:19:34.286Z,9.70
2018-11-13T19:22:04.310Z,9.70
2018-11-13T19:24:33.865Z,9.60
2018-11-13T19:27:03.383Z,9.50
2018-11-13T19:29:32.853Z,9.40
2018-11-13T19:32:02.898Z,9.30
2018-11-13T19:34:32.447Z,9.10
2018-11-13T19:37:02.035Z,9.00
2018-11-13T19:39:31.661Z,8.80
2018-11-13T19:42:01.097Z,8.70
2018-11-13T19:44:30.631Z,8.60
2018-11-13T19:47:00.157Z,8.40
2018-11-13T19:49:29.581Z,8.30
2018-11-13T19:51:59.567Z,8.20
2018-11-13T19:54:29.880Z,8.10
2018-11-13T19:57:00.465Z,8.00
2018-11-13T19:59:31.642Z,7.90
2018-11-13T20:02:01.432Z,7.70
2018-11-13T20:04:30.872Z,7.60
2018-11-13T20:07:00.249Z,7.50
2018-11-13T20:09:29.917Z,7.40
2018-11-13T20:11:59.258Z,7.30
2018-11-13T20:14:28.766Z,7.20
2018-11-13T20:16:58.157Z,7.10
2018-11-13T20:19:27.537Z,7.00
2018-11-13T20:21:56.927Z,6.90
2018-11-13T20:24:26.312Z,6.80
2018-11-13T20:26:55.862Z,6.70
2018-11-13T20:29:25.420Z,6.60
2018-11-13T20:31:54.947Z,6.50
2018-11-13T20:34:24.998Z,6.40
2018-11-13T20:36:54.390Z,6.30
2018-11-13T20:39:23.791Z,6.20
2018-11-13T20:41:53.230Z,6.10
2018-11-13T20:44:22.626Z,6.10
2018-11-13T20:46:51.990Z,6.00
2018-11-13T20:49:21.317Z,5.90
2018-11-13T20:51:50.995Z,5.90
2018-11-13T20:54:20.332Z,5.80
2018-11-13T20:56:49.757Z,5.70
2018-11-13T20:59:19.101Z,5.70
2018-11-13T21:01:48.591Z,5.60
2018-11-13T21:04:18.037Z,5.50
2018-11-13T21:06:47.434Z,5.50
2018-11-13T21:09:16.784Z,5.40
2018-11-13T21:11:46.219Z,5.40
2018-11-13T21:14:15.671Z,5.30
2018-11-13T21:16:45.175Z,5.30
2018-11-13T21:19:15.115Z,5.20
2018-11-13T21:21:44.522Z,5.20
2018-11-13T21:24:13.893Z,5.10
2018-11-13T21:26:43.320Z,5.10
2018-11-13T21:29:12.766Z,5.00
2018-11-13T21:31:42.168Z,5.00
2018-11-13T21:34:11.505Z,4.90
2018-11-13T21:36:40.849Z,4.90
2018-11-13T21:39:13.123Z,4.90
2018-11-13T21:41:42.542Z,4.80
2018-11-13T21:44:12.095Z,4.80
2018-11-13T21:46:41.453Z,4.80
2018-11-13T21:49:10.866Z,4.80
2018-11-13T21:51:40.274Z,4.70
2018-11-13T21:54:09.660Z,4.70
2018-11-13T21:56:39.033Z,4.70
2018-11-13T21:59:08.390Z,4.60
2018-11-13T22:01:37.852Z,4.60
2018-11-13T22:04:07.344Z,4.60
2018-11-13T22:06:36.825Z,4.60
2018-11-13T22:09:10.173Z,4.60
2018-11-13T22:11:39.547Z,4.50
2018-11-13T22:14:08.921Z,4.50
2018-11-13T22:16:38.391Z,4.50
2018-11-13T22:19:07.739Z,4.40
2018-11-13T22:21:37.085Z,4.40
2018-11-13T22:24:06.837Z,4.40
2018-11-13T22:26:36.136Z,4.30
2018-11-13T22:29:05.858Z,4.30
2018-11-13T22:31:35.213Z,4.20
2018-11-13T22:34:04.683Z,4.20
2018-11-13T22:36:34.249Z,4.10
2018-11-13T22:39:04.288Z,4.10
2018-11-13T22:41:33.612Z,4.10
2018-11-13T22:44:02.944Z,4.00
2018-11-13T22:46:32.285Z,4.00
2018-11-13T22:49:01.650Z,4.00
2018-11-13T22:51:31.366Z,3.90
2018-11-13T22:54:00.866Z,3.90
2018-11-13T22:56:30.208Z,3.90
2018-11-13T22:58:59.565Z,3.80
2018-11-13T23:01:29.275Z,3.80
2018-11-13T23:03:58.634Z,3.70
2018-11-13T23:06:27.949Z,3.70
2018-11-13T23:08:57.362Z,3.60
2018-11-13T23:11:26.760Z,3.50
2018-11-13T23:13:56.092Z,3.50
2018-11-13T23:16:25.528Z,3.50
2018-11-13T23:18:54.891Z,3.40
2018-11-13T23:21:24.294Z,3.30
2018-11-13T23:23:53.643Z,3.30
2018-11-13T23:26:23.020Z,3.30
2018-11-13T23:28:52.453Z,3.20
2018-11-13T23:31:21.820Z,3.20
2018-11-13T23:33:51.990Z,3.10
2018-11-13T23:36:21.835Z,3.10
2018-11-13T23:38:52.647Z,3.10
2018-11-13T23:41:21.967Z,3.10
2018-11-13T23:43:51.348Z,3.00
2018-11-13T23:46:20.679Z,3.00
2018-11-13T23:48:50.125Z,3.00
2018-11-13T23:51:20.619Z,2.90
2018-11-13T23:53:50.410Z,2.90
2018-11-13T23:56:19.861Z,2.90
2018-11-13T23:58:49.171Z,2.90
